sensor_id;sensor_type;location;lat;lon;timestamp;P1;durP1;ratioP1;P2;durP2;ratioP2
15151;SDS011;7676;50.900;6.234;2022-12-18T00:09:06;24.03;;;17.33;;
15151;SDS011;7676;50.900;6.234;2022-12-18T00:24:10;25.57;;;17.33;;
15151;SDS011;7676;50.900;6.234;2022-12-18T00:39:13;24.73;;;16.33;;
15151;SDS011;7676;50.900;6.234;2022-12-18T00:54:19;22.67;;;15.90;;
15151;SDS011;7676;50.900;6.234;2022-12-18T01:09:21;20.87;;;14.63;;
15151;SDS011;7676;50.900;6.234;2022-12-18T01:24:26;19.00;;;12.23;;
15151;SDS011;7676;50.900;6.234;2022-12-18T01:39:29;18.50;;;13.23;;
15151;SDS011;7676;50.900;6.234;2022-12-18T01:54:34;24.73;;;14.47;;
15151;SDS011;7676;50.900;6.234;2022-12-18T02:09:51;20.80;;;12.80;;
15151;SDS011;7676;50.900;6.234;2022-12-18T02:40:18;20.17;;;13.20;;
15151;SDS011;7676;50.900;6.234;2022-12-18T03:10:42;19.40;;;12.77;;
15151;SDS011;7676;50.900;6.234;2022-12-18T03:25:53;20.00;;;13.13;;
15151;SDS011;7676;50.900;6.234;2022-12-18T03:56:45;19.63;;;14.50;;
15151;SDS011;7676;50.900;6.234;2022-12-18T04:11:55;21.77;;;16.23;;
15151;SDS011;7676;50.900;6.234;2022-12-18T04:26:58;22.63;;;14.77;;
15151;SDS011;7676;50.900;6.234;2022-12-18T04:42:06;21.67;;;16.03;;
15151;SDS011;7676;50.900;6.234;2022-12-18T04:57:09;21.37;;;16.47;;
15151;SDS011;7676;50.900;6.234;2022-12-18T05:12:12;25.50;;;15.83;;
15151;SDS011;7676;50.900;6.234;2022-12-18T05:27:16;25.90;;;16.50;;
15151;SDS011;7676;50.900;6.234;2022-12-18T05:42:21;24.73;;;16.33;;
15151;SDS011;7676;50.900;6.234;2022-12-18T05:57:24;23.03;;;16.23;;
15151;SDS011;7676;50.900;6.234;2022-12-18T06:12:27;24.37;;;15.43;;
15151;SDS011;7676;50.900;6.234;2022-12-18T06:27:31;24.17;;;16.63;;
15151;SDS011;7676;50.900;6.234;2022-12-18T06:42:36;23.77;;;16.90;;
15151;SDS011;7676;50.900;6.234;2022-12-18T06:57:38;22.90;;;15.70;;
15151;SDS011;7676;50.900;6.234;2022-12-18T07:12:42;28.67;;;17.80;;
15151;SDS011;7676;50.900;6.234;2022-12-18T07:27:45;26.87;;;17.80;;
15151;SDS011;7676;50.900;6.234;2022-12-18T07:42:48;28.67;;;18.03;;
15151;SDS011;7676;50.900;6.234;2022-12-18T07:57:52;25.83;;;18.97;;
15151;SDS011;7676;50.900;6.234;2022-12-18T08:13:02;28.33;;;18.43;;
15151;SDS011;7676;50.900;6.234;2022-12-18T08:28:06;26.07;;;18.50;;
15151;SDS011;7676;50.900;6.234;2022-12-18T08:43:09;27.50;;;19.37;;
15151;SDS011;7676;50.900;6.234;2022-12-18T08:58:31;28.23;;;19.77;;
15151;SDS011;7676;50.900;6.234;2022-12-18T09:13:34;26.60;;;18.93;;
15151;SDS011;7676;50.900;6.234;2022-12-18T09:28:37;24.83;;;19.27;;
15151;SDS011;7676;50.900;6.234;2022-12-18T09:43:43;25.10;;;18.97;;
15151;SDS011;7676;50.900;6.234;2022-12-18T09:58:57;26.00;;;19.07;;
15151;SDS011;7676;50.900;6.234;2022-12-18T10:14:14;24.10;;;19.90;;
15151;SDS011;7676;50.900;6.234;2022-12-18T10:29:28;24.83;;;19.27;;
15151;SDS011;7676;50.900;6.234;2022-12-18T10:44:31;23.80;;;18.83;;
15151;SDS011;7676;50.900;6.234;2022-12-18T10:59:35;24.37;;;19.20;;
15151;SDS011;7676;50.900;6.234;2022-12-18T11:14:56;24.90;;;18.90;;
15151;SDS011;7676;50.900;6.234;2022-12-18T11:30:21;23.43;;;19.40;;
15151;SDS011;7676;50.900;6.234;2022-12-18T12:00:39;23.93;;;20.10;;
15151;SDS011;7676;50.900;6.234;2022-12-18T12:31:04;23.27;;;20.17;;
15151;SDS011;7676;50.900;6.234;2022-12-18T12:46:22;24.20;;;20.57;;
15151;SDS011;7676;50.900;6.234;2022-12-18T13:01:31;23.60;;;20.50;;
15151;SDS011;7676;50.900;6.234;2022-12-18T13:16:47;25.07;;;21.90;;
15151;SDS011;7676;50.900;6.234;2022-12-18T13:46:54;26.90;;;23.07;;
15151;SDS011;7676;50.900;6.234;2022-12-18T14:01:59;27.00;;;22.27;;
15151;SDS011;7676;50.900;6.234;2022-12-18T14:17:09;28.40;;;23.03;;
15151;SDS011;7676;50.900;6.234;2022-12-18T14:32:15;28.53;;;23.50;;
15151;SDS011;7676;50.900;6.234;2022-12-18T14:47:24;30.40;;;24.03;;
15151;SDS011;7676;50.900;6.234;2022-12-18T15:02:27;29.57;;;25.10;;
15151;SDS011;7676;50.900;6.234;2022-12-18T15:17:32;27.97;;;23.83;;
15151;SDS011;7676;50.900;6.234;2022-12-18T15:32:39;27.80;;;23.90;;
15151;SDS011;7676;50.900;6.234;2022-12-18T15:47:42;33.20;;;25.93;;
15151;SDS011;7676;50.900;6.234;2022-12-18T16:02:45;29.73;;;25.23;;
15151;SDS011;7676;50.900;6.234;2022-12-18T16:17:48;33.53;;;26.60;;
15151;SDS011;7676;50.900;6.234;2022-12-18T16:32:51;32.50;;;25.03;;
15151;SDS011;7676;50.900;6.234;2022-12-18T16:47:54;31.07;;;25.07;;
15151;SDS011;7676;50.900;6.234;2022-12-18T17:02:57;34.27;;;26.90;;
15151;SDS011;7676;50.900;6.234;2022-12-18T17:18:00;32.50;;;25.43;;
15151;SDS011;7676;50.900;6.234;2022-12-18T17:33:03;33.83;;;26.23;;
15151;SDS011;7676;50.900;6.234;2022-12-18T17:48:07;30.97;;;25.33;;
15151;SDS011;7676;50.900;6.234;2022-12-18T18:03:10;31.47;;;26.00;;
15151;SDS011;7676;50.900;6.234;2022-12-18T18:18:14;28.97;;;24.40;;
15151;SDS011;7676;50.900;6.234;2022-12-18T18:33:18;32.70;;;27.63;;
15151;SDS011;7676;50.900;6.234;2022-12-18T18:48:21;32.43;;;27.97;;
15151;SDS011;7676;50.900;6.234;2022-12-18T19:03:29;30.97;;;26.83;;
15151;SDS011;7676;50.900;6.234;2022-12-18T19:18:32;33.33;;;28.33;;
15151;SDS011;7676;50.900;6.234;2022-12-18T19:33:40;33.70;;;28.67;;
15151;SDS011;7676;50.900;6.234;2022-12-18T19:48:46;34.27;;;29.50;;
15151;SDS011;7676;50.900;6.234;2022-12-18T20:03:50;37.80;;;32.47;;
15151;SDS011;7676;50.900;6.234;2022-12-18T20:18:57;39.53;;;32.20;;
15151;SDS011;7676;50.900;6.234;2022-12-18T20:34:00;34.47;;;29.50;;
15151;SDS011;7676;50.900;6.234;2022-12-18T20:49:06;38.73;;;30.90;;
15151;SDS011;7676;50.900;6.234;2022-12-18T21:04:08;41.40;;;35.30;;
15151;SDS011;7676;50.900;6.234;2022-12-18T21:19:18;38.43;;;27.93;;
15151;SDS011;7676;50.900;6.234;2022-12-18T21:34:25;40.20;;;28.37;;
15151;SDS011;7676;50.900;6.234;2022-12-18T21:49:29;40.03;;;28.17;;
15151;SDS011;7676;50.900;6.234;2022-12-18T22:04:34;37.37;;;27.93;;
15151;SDS011;7676;50.900;6.234;2022-12-18T22:19:37;39.47;;;29.87;;
15151;SDS011;7676;50.900;6.234;2022-12-18T22:34:44;40.13;;;30.70;;
15151;SDS011;7676;50.900;6.234;2022-12-18T22:49:48;39.07;;;30.30;;
15151;SDS011;7676;50.900;6.234;2022-12-18T23:04:51;37.80;;;29.17;;
15151;SDS011;7676;50.900;6.234;2022-12-18T23:19:55;35.30;;;28.07;;
15151;SDS011;7676;50.900;6.234;2022-12-18T23:34:58;34.93;;;27.67;;
15151;SDS011;7676;50.900;6.234;2022-12-18T23:50:01;34.90;;;26.60;;
